KMLB

Melbourne International Airport

Melbourne, Florida, USA
KMLB 191143Z 1912/2012 00000KT P6SM BKN250 FM191500 18010KT P6SM FEW040 BKN250 FM191800 15012G18KT P6SM SCT045 BKN250 FM200000 17010KT P6SM FEW050 SCT120 BKN200 FM200900 22014KT P6SM -RA VCTS SCT025CB OVC040
Issued Valid From Valid To
Jan-19 @ 11:43 UTC
(6 hours ago)
Jan-19 @ 12:00 UTC
(5 hours ago)
Jan-20 @ 12:00 UTC
(in 19 hours)
Expired Click to View Jan-19 @ 12:00 to Jan-19 @ 15:00
KMLB 191143Z 1912/2012 00000KT P6SM BKN250
Visibility Clouds
Greater than 6 miles
  • Broken at 25,000' AGL
From Jan-19 @ 15:00 to Jan-19 @ 18:00
FM191500 18010KT P6SM FEW040 BKN250
Wind Visibility Clouds
180° at 10 knots Greater than 6 miles
  • Few at 4,000' AGL
  • Broken at 25,000' AGL
From Jan-19 @ 18:00 to Jan-20 @ 00:00
FM191800 15012G18KT P6SM SCT045 BKN250
Wind Visibility Clouds
150° at 12 knots
 Gusting to 18 knots
Greater than 6 miles
  • Scattered at 4,500' AGL
  • Broken at 25,000' AGL
From Jan-20 @ 00:00 to Jan-20 @ 09:00
FM200000 17010KT P6SM FEW050 SCT120 BKN200
Wind Visibility Clouds
170° at 10 knots Greater than 6 miles
  • Few at 5,000' AGL
  • Scattered at 12,000' AGL
  • Broken at 20,000' AGL
From Jan-20 @ 09:00 to Jan-20 @ 12:00
FM200900 22014KT P6SM -RA VCTS SCT025CB OVC040
Wind Visibility Clouds Conditions
220° at 14 knots Greater than 6 miles
  • Scattered at 2,500' AGL
  • Overcast at 4,000' AGL
  • Light Rain
  • Area Thunderstorm
KMLB 191143Z 1912/2012 00000KT P6SM BKN250 FM191500 18010KT P6SM FEW040 BKN250 FM191800 15012G18KT P6SM SCT045 BKN250 FM200000 17010KT P6SM FEW050 SCT120 BKN200 FM200900 22014KT P6SM -RA VCTS SCT025CB OVC040
Issued Jan-19 @ 11:43 UTC
(6 hours ago)
Valid From Jan-19 @ 12:00 UTC
(5 hours ago)
Valid To Jan-20 @ 12:00 UTC
(in 19 hours)
Jan-19 @ 12:00 - Jan-19 @ 15:00
Clouds
  • Broken at 25,000' AGL
From Jan-19 @ 15:00 - Jan-19 @ 18:00
Wind Visibility
180° at 10 knots Greater than 6 miles
Clouds
  • Few at 4,000' AGL
  • Broken at 25,000' AGL
From Jan-19 @ 18:00 - Jan-20 @ 00:00
Wind Visibility
150° at 12 knots
 Gusting to 18 knots
Greater than 6 miles
Clouds
  • Scattered at 4,500' AGL
  • Broken at 25,000' AGL
From Jan-20 @ 00:00 - Jan-20 @ 09:00
Wind Visibility
170° at 10 knots Greater than 6 miles
Clouds
  • Few at 5,000' AGL
  • Scattered at 12,000' AGL
  • Broken at 20,000' AGL
From Jan-20 @ 09:00 - Jan-20 @ 12:00
Wind Visibility
220° at 14 knots Greater than 6 miles
Clouds
  • Scattered at 2,500' AGL
  • Overcast at 4,000' AGL
Conditions
  • Light Rain
  • Area Thunderstorm